Time;durP1;ratioP1;P1;durP2;ratioP2;P2;SDS_P1;SDS_P2;PMS_P1;PMS_P2;Temp;Humidity;BMP_temperature;BMP_pressure;BME280_temperature;BME280_humidity;BME280_pressure;Samples;Min_cycle;Max_cycle;Signal;HPM_P1;HPM_P2
2022/07/11 00:00:46;;;;;;;;;;;20.80;71.20;;;;;;5009686;28;19913;-78
2022/07/11 00:03:11;;;;;;;;;;;20.70;71.40;;;;;;5027095;28;19909;-79
2022/07/11 00:05:37;;;;;;;;;;;20.70;71.30;;;;;;5027405;28;19983;-80
2022/07/11 00:08:06;;;;;;;;;;;20.70;71.60;;;;;;5027012;28;20086;-80
2022/07/11 00:10:32;;;;;;;;;;;20.70;72.10;;;;;;5026330;28;19913;-80
2022/07/11 00:12:57;;;;;;;;;;;20.60;72.00;;;;;;5027521;28;19909;-80
2022/07/11 00:15:23;;;;;;;;;;;20.60;72.30;;;;;;5026875;28;19919;-80
2022/07/11 00:17:48;;;;;;;;;;;20.60;72.40;;;;;;5026688;28;20367;-80
2022/07/11 00:20:14;;;;;;;;;;;20.50;72.40;;;;;;5026760;28;20427;-80
2022/07/11 00:22:39;;;;;;;;;;;20.50;72.90;;;;;;5027162;28;19966;-80
2022/07/11 00:25:05;;;;;;;;;;;20.30;73.70;;;;;;5027025;28;20289;-80
2022/07/11 00:27:31;;;;;;;;;;;20.40;73.80;;;;;;5025560;28;19917;-80
2022/07/11 00:29:56;;;;;;;;;;;20.40;73.80;;;;;;5026131;28;20307;-80
2022/07/11 00:32:22;;;;;;;;;;;20.30;74.20;;;;;;5021617;28;20483;-88
2022/07/11 00:34:47;;;;;;;;;;;20.30;73.90;;;;;;5028083;28;19921;-92
2022/07/11 00:37:13;;;;;;;;;;;20.20;74.60;;;;;;5030874;28;20347;-91
2022/07/11 00:39:39;;;;;;;;;;;20.10;74.90;;;;;;5020063;28;19913;-86
2022/07/11 00:42:04;;;;;;;;;;;20.20;75.00;;;;;;5028883;28;20356;-89
2022/07/11 00:44:30;;;;;;;;;;;20.00;75.50;;;;;;5030495;28;20458;-86
2022/07/11 00:46:55;;;;;;;;;;;20.10;75.00;;;;;;5029953;28;19919;-89
2022/07/11 00:49:21;;;;;;;;;;;20.10;74.60;;;;;;5021233;28;19963;-92
2022/07/11 00:51:48;;;;;;;;;;;20.10;75.10;;;;;;5007763;28;19944;-83
2022/07/11 00:54:14;;;;;;;;;;;20.00;75.60;;;;;;5023428;28;20012;-83
2022/07/11 00:56:40;;;;;;;;;;;20.00;75.90;;;;;;5026985;28;20035;-83
2022/07/11 00:59:08;;;;;;;;;;;19.90;76.10;;;;;;5022771;28;20035;-83
2022/07/11 01:01:37;;;;;;;;;;;19.90;76.20;;;;;;5024036;28;19920;-82
2022/07/11 01:04:03;;;;;;;;;;;19.90;76.00;;;;;;5026133;28;20626;-78
2022/07/11 01:06:29;;;;;;;;;;;19.80;76.40;;;;;;5026462;28;19991;-78
2022/07/11 01:08:54;;;;;;;;;;;19.70;77.10;;;;;;5025502;28;19948;-77
2022/07/11 01:11:20;;;;;;;;;;;19.80;76.90;;;;;;5025411;28;19991;-78
2022/07/11 01:13:46;;;;;;;;;;;19.60;77.70;;;;;;5025197;28;19921;-78
2022/07/11 01:16:16;;;;;;;;;;;19.70;76.90;;;;;;5007074;28;20458;-79
2022/07/11 01:18:42;;;;;;;;;;;19.70;77.10;;;;;;5026055;28;19913;-78
2022/07/11 01:21:24;;;;;;;;;;;19.60;77.10;;;;;;5026787;28;19913;-78
2022/07/11 01:23:50;;;;;;;;;;;19.80;76.40;;;;;;5025426;28;20353;-79
2022/07/11 01:26:16;;;;;;;;;;;19.80;76.70;;;;;;5026305;28;19912;-79
2022/07/11 01:28:42;;;;;;;;;;;19.80;76.40;;;;;;5007343;28;19913;-79
2022/07/11 01:31:07;;;;;;;;;;;19.80;76.90;;;;;;5026841;28;19931;-79
2022/07/11 01:33:33;;;;;;;;;;;19.70;77.00;;;;;;5022200;28;19998;-79
2022/07/11 01:36:02;;;;;;;;;;;19.60;77.40;;;;;;5025956;28;19924;-79
2022/07/11 01:38:27;;;;;;;;;;;19.50;78.10;;;;;;5025376;28;19917;-79
2022/07/11 01:40:53;;;;;;;;;;;19.40;78.20;;;;;;5026104;28;19937;-78
2022/07/11 01:43:18;;;;;;;;;;;19.40;78.40;;;;;;5025050;28;19920;-80
2022/07/11 01:45:44;;;;;;;;;;;19.40;78.60;;;;;;5008030;28;19909;-79
2022/07/11 01:48:09;;;;;;;;;;;19.30;78.50;;;;;;5007361;28;19909;-78
2022/07/11 01:50:35;;;;;;;;;;;19.30;78.90;;;;;;5023530;28;20304;-78
2022/07/11 01:53:02;;;;;;;;;;;19.30;78.80;;;;;;5024609;28;19924;-77
2022/07/11 01:55:28;;;;;;;;;;;19.30;79.20;;;;;;5026011;28;19912;-76
2022/07/11 01:57:53;;;;;;;;;;;19.20;79.80;;;;;;5024223;28;19913;-77
2022/07/11 02:00:19;;;;;;;;;;;19.30;79.60;;;;;;5006347;28;19924;-77
2022/07/11 02:02:44;;;;;;;;;;;19.20;79.40;;;;;;5024285;28;19912;-78
2022/07/11 02:05:10;;;;;;;;;;;19.20;79.70;;;;;;5007359;28;19913;-79
2022/07/11 02:10:20;;;;;;;;;;;19.10;80.10;;;;;;5023652;28;20003;-77
2022/07/11 02:12:45;;;;;;;;;;;19.10;80.50;;;;;;5005697;28;19920;-77
2022/07/11 02:15:11;;;;;;;;;;;19.00;80.90;;;;;;5023839;28;20580;-78
2022/07/11 02:17:36;;;;;;;;;;;19.00;80.80;;;;;;5023971;28;19924;-78
2022/07/11 02:20:02;;;;;;;;;;;19.00;80.70;;;;;;5024536;28;20459;-78
2022/07/11 02:22:29;;;;;;;;;;;19.00;81.60;;;;;;5024348;28;20388;-79
2022/07/11 02:24:55;;;;;;;;;;;19.00;81.30;;;;;;5023593;28;19935;-79
2022/07/11 02:27:20;;;;;;;;;;;18.90;82.10;;;;;;5005070;28;20078;-79
2022/07/11 02:29:46;;;;;;;;;;;18.80;82.80;;;;;;5024183;28;19913;-79
2022/07/11 02:32:12;;;;;;;;;;;18.80;83.20;;;;;;5020259;28;19922;-79
2022/07/11 02:34:37;;;;;;;;;;;18.70;84.00;;;;;;5020670;28;20368;-79
2022/07/11 02:37:03;;;;;;;;;;;18.80;83.80;;;;;;5023414;28;19913;-79
2022/07/11 02:39:28;;;;;;;;;;;18.80;83.40;;;;;;5024855;28;20400;-76
2022/07/11 02:41:54;;;;;;;;;;;18.70;83.90;;;;;;5024188;28;20405;-77
2022/07/11 02:44:20;;;;;;;;;;;18.80;83.90;;;;;;5024116;28;20294;-77
2022/07/11 02:46:45;;;;;;;;;;;18.80;83.30;;;;;;5024351;28;19913;-77
2022/07/11 02:49:11;;;;;;;;;;;18.70;84.00;;;;;;5002433;28;19920;-76
2022/07/11 02:51:36;;;;;;;;;;;18.80;83.10;;;;;;5015924;28;20396;-78
2022/07/11 02:54:02;;;;;;;;;;;18.90;82.40;;;;;;5010425;28;19914;-78
2022/07/11 02:56:27;;;;;;;;;;;18.80;83.30;;;;;;5004421;28;20804;-77
2022/07/11 02:58:53;;;;;;;;;;;18.80;82.80;;;;;;5022713;28;19935;-77
2022/07/11 03:01:19;;;;;;;;;;;18.80;83.10;;;;;;5023342;28;19917;-77
2022/07/11 03:03:45;;;;;;;;;;;18.70;82.90;;;;;;5006096;28;19971;-78
2022/07/11 03:06:11;;;;;;;;;;;18.80;81.90;;;;;;5023454;28;19952;-77
2022/07/11 03:08:36;;;;;;;;;;;18.80;82.10;;;;;;5023607;28;19913;-78
2022/07/11 03:11:02;;;;;;;;;;;18.70;82.20;;;;;;5023498;28;19967;-78
2022/07/11 03:13:28;;;;;;;;;;;18.60;82.30;;;;;;5023454;28;19913;-78
2022/07/11 03:15:53;;;;;;;;;;;18.70;82.20;;;;;;5023309;28;20380;-78
2022/07/11 03:18:19;;;;;;;;;;;18.60;82.80;;;;;;5024108;28;19975;-78
2022/07/11 03:20:44;;;;;;;;;;;18.50;82.70;;;;;;5022954;28;19909;-77
2022/07/11 03:23:10;;;;;;;;;;;18.50;83.50;;;;;;5012299;28;19991;-77
2022/07/11 03:25:35;;;;;;;;;;;18.40;83.90;;;;;;5021216;28;20315;-78
2022/07/11 03:28:01;;;;;;;;;;;18.50;83.30;;;;;;5024268;28;20328;-79
2022/07/11 03:30:27;;;;;;;;;;;18.40;83.10;;;;;;5024047;28;20303;-87
2022/07/11 03:32:52;;;;;;;;;;;18.40;83.00;;;;;;5006290;28;20396;-85
2022/07/11 03:38:02;;;;;;;;;;;18.40;82.80;;;;;;5002004;28;19954;-86
2022/07/11 03:40:28;;;;;;;;;;;18.50;81.80;;;;;;5003385;28;19913;-85
2022/07/11 03:42:53;;;;;;;;;;;18.50;80.90;;;;;;5005571;28;19916;-86
2022/07/11 03:45:19;;;;;;;;;;;18.50;81.60;;;;;;5003871;28;19924;-78
2022/07/11 03:47:44;;;;;;;;;;;18.50;80.70;;;;;;5003993;28;20372;-90
2022/07/11 03:50:10;;;;;;;;;;;18.60;80.10;;;;;;5004883;28;20574;-89
2022/07/11 03:52:35;;;;;;;;;;;18.60;80.10;;;;;;4997717;28;19925;-84
2022/07/11 03:55:01;;;;;;;;;;;18.50;80.40;;;;;;5000673;28;19913;-81
2022/07/11 03:57:26;;;;;;;;;;;18.40;80.80;;;;;;4996609;28;19956;-79
2022/07/11 03:59:52;;;;;;;;;;;18.40;81.50;;;;;;4984810;28;19910;-79
2022/07/11 04:02:17;;;;;;;;;;;18.30;81.20;;;;;;5003611;28;19916;-80
2022/07/11 04:04:43;;;;;;;;;;;18.30;81.50;;;;;;4999569;28;19935;-82
2022/07/11 04:07:09;;;;;;;;;;;18.30;81.40;;;;;;4998207;28;19914;-81
2022/07/11 04:09:34;;;;;;;;;;;18.30;81.70;;;;;;5001726;28;19913;-82
2022/07/11 04:12:00;;;;;;;;;;;18.40;81.50;;;;;;5018979;28;19917;-82
2022/07/11 04:14:25;;;;;;;;;;;18.30;81.20;;;;;;5003699;28;19909;-81
2022/07/11 04:16:51;;;;;;;;;;;18.30;82.20;;;;;;5003225;28;19972;-81
2022/07/11 04:19:17;;;;;;;;;;;18.20;82.90;;;;;;5001948;28;19967;-82
2022/07/11 04:21:42;;;;;;;;;;;18.10;83.20;;;;;;4990711;28;20451;-84
2022/07/11 04:24:08;;;;;;;;;;;18.10;83.30;;;;;;4999989;28;20710;-83
2022/07/11 04:26:33;;;;;;;;;;;18.10;83.60;;;;;;5004856;28;19909;-82
2022/07/11 04:28:59;;;;;;;;;;;18.20;82.90;;;;;;5007469;28;19909;-83
2022/07/11 04:31:25;;;;;;;;;;;18.10;83.10;;;;;;5007019;28;19960;-85
2022/07/11 04:33:51;;;;;;;;;;;18.30;82.00;;;;;;5012185;28;20039;-87
2022/07/11 04:36:16;;;;;;;;;;;19.00;79.30;;;;;;5026744;28;19967;-85
2022/07/11 04:38:44;;;;;;;;;;;19.30;78.00;;;;;;5027784;28;19916;-86
2022/07/11 04:41:10;;;;;;;;;;;19.80;76.10;;;;;;5009837;28;19909;-85
2022/07/11 04:43:36;;;;;;;;;;;20.00;74.70;;;;;;4998445;28;19910;-92
2022/07/11 04:46:03;;;;;;;;;;;20.30;73.90;;;;;;5028823;28;19909;-86
2022/07/11 04:48:29;;;;;;;;;;;20.60;72.80;;;;;;5028806;28;20273;-85
2022/07/11 04:50:54;;;;;;;;;;;20.80;71.80;;;;;;5026771;28;19974;-88
2022/07/11 04:53:20;;;;;;;;;;;21.10;71.30;;;;;;5023673;28;20359;-86
2022/07/11 04:55:45;;;;;;;;;;;21.40;70.10;;;;;;5026291;28;19917;-80
2022/07/11 04:58:11;;;;;;;;;;;21.70;69.00;;;;;;5013924;28;19909;-80
2022/07/11 05:00:36;;;;;;;;;;;21.90;67.90;;;;;;5013694;28;19959;-79
2022/07/11 05:03:02;;;;;;;;;;;22.20;66.90;;;;;;5026533;28;19916;-79
2022/07/11 05:05:28;;;;;;;;;;;21.90;67.50;;;;;;5025519;28;19913;-79
2022/07/11 05:07:54;;;;;;;;;;;22.00;67.10;;;;;;5026283;28;19909;-83
2022/07/11 05:10:19;;;;;;;;;;;22.30;66.70;;;;;;5026631;28;19955;-84
2022/07/11 05:12:45;;;;;;;;;;;22.80;65.60;;;;;;5018755;28;19923;-80
2022/07/11 05:15:10;;;;;;;;;;;22.80;64.80;;;;;;5021612;28;19917;-81
2022/07/11 05:17:36;;;;;;;;;;;22.90;64.40;;;;;;5025972;28;19932;-79
2022/07/11 05:20:02;;;;;;;;;;;23.20;64.90;;;;;;5008616;28;19983;-86
2022/07/11 05:22:28;;;;;;;;;;;22.90;64.30;;;;;;5007987;28;20006;-81
2022/07/11 05:24:53;;;;;;;;;;;23.20;63.60;;;;;;5041784;28;20439;-78
2022/07/11 05:27:19;;;;;;;;;;;23.50;62.70;;;;;;5026827;28;20383;-88
2022/07/11 05:29:44;;;;;;;;;;;23.50;62.90;;;;;;5008972;28;20454;-84
2022/07/11 05:32:10;;;;;;;;;;;23.80;62.50;;;;;;5013618;28;19925;-86
2022/07/11 05:34:36;;;;;;;;;;;24.20;61.00;;;;;;5007611;28;20012;-82
2022/07/11 05:37:01;;;;;;;;;;;24.40;60.30;;;;;;5024940;28;19924;-88
2022/07/11 05:39:27;;;;;;;;;;;24.90;60.10;;;;;;5023696;28;20446;-88
2022/07/11 05:41:53;;;;;;;;;;;25.20;59.50;;;;;;5025751;28;19948;-88
2022/07/11 05:44:18;;;;;;;;;;;24.90;59.30;;;;;;5031678;28;19915;-89
2022/07/11 05:46:44;;;;;;;;;;;24.90;58.90;;;;;;5044535;28;20038;-87
2022/07/11 05:49:10;;;;;;;;;;;25.50;57.90;;;;;;5026914;28;19909;-86
2022/07/11 05:51:36;;;;;;;;;;;26.00;58.30;;;;;;5025595;28;19917;-85
2022/07/11 05:54:02;;;;;;;;;;;26.00;57.10;;;;;;5025345;28;19958;-85
2022/07/11 05:56:27;;;;;;;;;;;26.20;56.70;;;;;;5020158;28;19941;-85
2022/07/11 05:58:53;;;;;;;;;;;26.50;56.00;;;;;;5019421;28;20391;-85
2022/07/11 06:01:20;;;;;;;;;;;26.30;56.40;;;;;;4999963;28;19936;-86
2022/07/11 06:03:46;;;;;;;;;;;26.60;56.00;;;;;;4994311;28;19983;-86
2022/07/11 06:06:11;;;;;;;;;;;26.20;55.30;;;;;;5006636;28;19924;-87
2022/07/11 06:08:40;;;;;;;;;;;26.10;56.00;;;;;;5023309;28;20399;-87
2022/07/11 06:11:06;;;;;;;;;;;26.70;55.40;;;;;;5006747;28;19936;-85
2022/07/11 06:13:31;;;;;;;;;;;26.50;55.60;;;;;;5024689;28;19936;-86
2022/07/11 06:15:57;;;;;;;;;;;26.90;55.00;;;;;;5013388;28;20360;-85
2022/07/11 06:18:23;;;;;;;;;;;26.60;55.60;;;;;;4999482;28;20390;-86
2022/07/11 06:20:49;;;;;;;;;;;27.20;54.70;;;;;;5022926;28;19916;-86
2022/07/11 06:23:14;;;;;;;;;;;27.00;54.70;;;;;;5019257;28;19908;-86
2022/07/11 06:25:40;;;;;;;;;;;27.50;53.90;;;;;;5016804;28;20427;-89
2022/07/11 06:28:06;;;;;;;;;;;27.50;53.30;;;;;;5020454;28;20031;-91
2022/07/11 06:30:32;;;;;;;;;;;27.20;53.60;;;;;;5002530;28;19920;-90
2022/07/11 06:32:58;;;;;;;;;;;27.90;53.00;;;;;;5010566;28;19917;-87
2022/07/11 06:35:23;;;;;;;;;;;28.40;52.30;;;;;;5022162;28;19921;-86
2022/07/11 06:37:49;;;;;;;;;;;28.20;51.60;;;;;;5013642;28;19909;-84
2022/07/11 06:40:17;;;;;;;;;;;28.10;52.30;;;;;;5017611;28;19936;-87
2022/07/11 06:42:45;;;;;;;;;;;28.90;52.60;;;;;;5018790;28;19912;-87
2022/07/11 06:45:11;;;;;;;;;;;29.60;50.80;;;;;;5016125;28;19908;-86
2022/07/11 06:47:37;;;;;;;;;;;29.80;50.70;;;;;;5018630;28;20269;-86
2022/07/11 06:50:02;;;;;;;;;;;29.20;50.40;;;;;;5012868;28;19916;-85
2022/07/11 06:52:28;;;;;;;;;;;29.20;50.50;;;;;;5000687;28;20059;-85
2022/07/11 06:54:53;;;;;;;;;;;29.50;49.20;;;;;;5005533;28;20054;-86
2022/07/11 06:57:19;;;;;;;;;;;29.00;50.10;;;;;;5003800;28;19909;-85
2022/07/11 06:59:44;;;;;;;;;;;29.40;49.40;;;;;;5014152;28;19906;-86
2022/07/11 07:02:10;;;;;;;;;;;29.70;50.20;;;;;;5007179;28;20738;-87
2022/07/11 07:04:35;;;;;;;;;;;29.50;49.40;;;;;;5013555;28;20459;-88
2022/07/11 07:07:01;;;;;;;;;;;30.20;50.50;;;;;;5014871;28;20600;-88
2022/07/11 07:09:27;;;;;;;;;;;29.70;49.30;;;;;;5015974;28;19962;-88
2022/07/11 07:11:54;;;;;;;;;;;30.40;48.10;;;;;;5012126;28;19932;-88
2022/07/11 07:14:19;;;;;;;;;;;30.80;49.10;;;;;;5023864;28;19917;-88
2022/07/11 07:16:45;;;;;;;;;;;30.80;49.40;;;;;;5014676;28;20801;-87
2022/07/11 07:19:10;;;;;;;;;;;31.40;48.10;;;;;;5013490;28;19971;-87
2022/07/11 07:21:36;;;;;;;;;;;31.60;47.60;;;;;;4995845;28;19963;-86
2022/07/11 07:24:01;;;;;;;;;;;32.30;47.90;;;;;;5009228;28;19963;-87
2022/07/11 07:26:27;;;;;;;;;;;31.70;47.50;;;;;;5001595;28;19963;-88
2022/07/11 07:28:52;;;;;;;;;;;31.90;47.70;;;;;;5027795;28;19919;-88
2022/07/11 07:31:18;;;;;;;;;;;31.70;47.50;;;;;;5012311;28;20388;-88
2022/07/11 07:33:43;;;;;;;;;;;31.60;47.20;;;;;;4998469;28;20493;-88
2022/07/11 07:36:09;;;;;;;;;;;31.70;47.30;;;;;;4994707;28;19924;-88
2022/07/11 07:38:34;;;;;;;;;;;31.80;47.30;;;;;;4995284;28;19909;-89
2022/07/11 07:41:00;;;;;;;;;;;32.10;47.70;;;;;;5030694;28;19924;-88
2022/07/11 07:43:26;;;;;;;;;;;32.50;47.80;;;;;;5011850;28;19916;-88
2022/07/11 07:45:52;;;;;;;;;;;33.40;46.70;;;;;;5010137;28;19916;-86
2022/07/11 07:48:17;;;;;;;;;;;33.70;45.60;;;;;;5015105;28;20427;-88
2022/07/11 07:50:43;;;;;;;;;;;33.80;44.80;;;;;;5014083;28;19913;-88
2022/07/11 07:53:09;;;;;;;;;;;33.50;45.40;;;;;;5016619;28;20000;-87
2022/07/11 07:55:35;;;;;;;;;;;33.80;45.90;;;;;;5009786;28;20378;-88
2022/07/11 07:58:00;;;;;;;;;;;34.50;45.70;;;;;;5012101;28;19909;-88
2022/07/11 08:03:10;;;;;;;;;;;34.90;45.60;;;;;;5012710;28;19917;-87
2022/07/11 08:05:36;;;;;;;;;;;34.10;46.30;;;;;;5015625;28;19917;-88
2022/07/11 08:08:03;;;;;;;;;;;34.80;44.90;;;;;;5019492;28;20393;-88
2022/07/11 08:10:29;;;;;;;;;;;34.50;43.80;;;;;;4999214;28;20563;-87
2022/07/11 08:12:55;;;;;;;;;;;35.50;44.30;;;;;;5018636;28;19928;-87
2022/07/11 08:15:20;;;;;;;;;;;35.50;44.00;;;;;;5019643;28;20670;-88
2022/07/11 08:17:46;;;;;;;;;;;35.80;42.70;;;;;;5013676;28;19959;-88
2022/07/11 08:20:11;;;;;;;;;;;36.40;46.40;;;;;;5017430;28;20368;-87
2022/07/11 08:22:37;;;;;;;;;;;36.50;44.30;;;;;;5003825;28;19936;-88
2022/07/11 08:25:02;;;;;;;;;;;35.90;44.60;;;;;;5019695;28;19951;-89
2022/07/11 08:27:28;;;;;;;;;;;36.30;44.60;;;;;;5020853;28;20007;-88
2022/07/11 08:29:53;;;;;;;;;;;35.80;43.60;;;;;;5001256;28;19909;-88
2022/07/11 08:32:19;;;;;;;;;;;36.70;43.70;;;;;;5020495;28;19928;-87
2022/07/11 08:34:45;;;;;;;;;;;36.40;43.20;;;;;;5012747;28;19984;-88
2022/07/11 08:37:11;;;;;;;;;;;35.70;43.50;;;;;;4999701;28;19980;-88
2022/07/11 08:39:36;;;;;;;;;;;36.40;43.90;;;;;;5014724;28;19917;-88
2022/07/11 08:42:02;;;;;;;;;;;37.10;43.20;;;;;;5017588;28;19919;-88
2022/07/11 08:44:28;;;;;;;;;;;36.30;43.70;;;;;;4999228;28;19916;-88
2022/07/11 08:46:54;;;;;;;;;;;37.60;41.90;;;;;;5004634;28;19915;-87
2022/07/11 08:49:19;;;;;;;;;;;37.50;43.20;;;;;;5028695;28;19920;-88
2022/07/11 08:51:46;;;;;;;;;;;37.70;42.90;;;;;;5020482;28;20299;-87
2022/07/11 08:54:12;;;;;;;;;;;37.10;43.00;;;;;;5003351;28;20448;-88
2022/07/11 08:56:38;;;;;;;;;;;38.30;43.70;;;;;;5018666;28;20011;-88
2022/07/11 08:59:03;;;;;;;;;;;37.80;42.90;;;;;;4991874;28;19915;-87
2022/07/11 09:01:30;;;;;;;;;;;38.00;42.50;;;;;;5021981;28;19913;-86
2022/07/11 09:03:56;;;;;;;;;;;37.90;42.90;;;;;;5015511;28;19994;-87
2022/07/11 09:06:21;;;;;;;;;;;38.30;42.70;;;;;;5002762;28;19913;-86
2022/07/11 09:08:47;;;;;;;;;;;38.50;42.80;;;;;;5018404;28;19920;-86
2022/07/11 09:11:13;;;;;;;;;;;39.20;41.90;;;;;;4995451;28;19928;-88
2022/07/11 09:13:38;;;;;;;;;;;39.20;43.40;;;;;;5015094;28;20070;-86
2022/07/11 09:16:05;;;;;;;;;;;39.30;42.20;;;;;;4998643;28;19918;-86
2022/07/11 09:18:38;;;;;;;;;;;39.60;42.20;;;;;;5004478;28;19913;-88
2022/07/11 09:26:37;;;;;;;;;;;38.70;43.50;;;;;;5015194;28;20457;-87
2022/07/11 09:29:06;;;;;;;;;;;39.80;41.40;;;;;;5004510;28;19912;-87
2022/07/11 09:31:33;;;;;;;;;;;39.70;41.30;;;;;;5017877;28;19982;-87
2022/07/11 09:33:59;;;;;;;;;;;39.90;41.30;;;;;;5011995;28;19920;-87
2022/07/11 09:36:43;;;;;;;;;;;40.30;40.80;;;;;;5018438;28;19948;-88
2022/07/11 09:39:28;;;;;;;;;;;40.10;40.70;;;;;;5019259;28;19970;-88
2022/07/11 09:41:54;;;;;;;;;;;40.10;41.10;;;;;;5013981;28;21318;-87
2022/07/11 09:44:22;;;;;;;;;;;40.40;40.50;;;;;;5009505;28;19924;-90
2022/07/11 09:46:49;;;;;;;;;;;40.40;40.60;;;;;;5005100;28;19917;-89
2022/07/11 09:49:15;;;;;;;;;;;41.20;40.30;;;;;;5004927;28;19955;-89
2022/07/11 09:51:41;;;;;;;;;;;41.00;40.00;;;;;;5000101;28;19917;-90
2022/07/11 09:54:07;;;;;;;;;;;41.80;40.30;;;;;;5013805;28;19913;-89
2022/07/11 09:56:44;;;;;;;;;;;41.20;40.40;;;;;;5018120;28;19983;-90
2022/07/11 09:59:11;;;;;;;;;;;40.10;40.10;;;;;;5023094;28;20003;-91
2022/07/11 10:01:37;;;;;;;;;;;40.80;41.20;;;;;;5025188;28;19916;-90
2022/07/11 10:04:04;;;;;;;;;;;41.30;40.30;;;;;;5022197;28;19905;-88
2022/07/11 10:06:30;;;;;;;;;;;41.50;38.60;;;;;;5025877;28;20557;-89
2022/07/11 10:08:55;;;;;;;;;;;42.10;41.30;;;;;;5017466;28;19955;-90
2022/07/11 10:11:21;;;;;;;;;;;41.00;38.60;;;;;;5026054;28;20439;-90
2022/07/11 10:13:47;;;;;;;;;;;41.60;39.30;;;;;;5011813;28;19937;-89
2022/07/11 10:16:31;;;;;;;;;;;42.00;39.20;;;;;;5004424;28;19913;-90
2022/07/11 10:19:15;;;;;;;;;;;40.50;38.90;;;;;;5019033;28;19913;-88
2022/07/11 10:21:59;;;;;;;;;;;40.60;39.40;;;;;;5017706;28;19913;-89
2022/07/11 10:24:35;;;;;;;;;;;41.40;39.90;;;;;;5018659;28;19988;-90
2022/07/11 10:27:05;;;;;;;;;;;40.90;39.70;;;;;;5018232;28;19913;-87
2022/07/11 10:29:37;;;;;;;;;;;40.80;39.40;;;;;;5020642;28;20295;-87
2022/07/11 10:32:06;;;;;;;;;;;41.40;39.00;;;;;;5019380;28;19917;-84
2022/07/11 10:34:31;;;;;;;;;;;40.20;40.20;;;;;;5020910;28;20389;-83
2022/07/11 10:37:01;;;;;;;;;;;40.10;39.10;;;;;;5015624;28;19964;-83
2022/07/11 10:39:27;;;;;;;;;;;38.80;41.10;;;;;;5012746;28;19909;-83
2022/07/11 10:41:57;;;;;;;;;;;38.00;40.80;;;;;;5000028;28;19913;-82
2022/07/11 10:44:22;;;;;;;;;;;36.80;40.80;;;;;;5009221;28;20685;-83
2022/07/11 10:46:48;;;;;;;;;;;35.30;40.80;;;;;;5012026;28;20004;-83
2022/07/11 10:49:18;;;;;;;;;;;34.90;42.70;;;;;;5007420;28;20296;-83
2022/07/11 10:51:50;;;;;;;;;;;33.90;42.90;;;;;;5014517;28;19925;-83
2022/07/11 10:54:34;;;;;;;;;;;33.90;44.40;;;;;;5011449;28;19983;-83
2022/07/11 10:57:07;;;;;;;;;;;33.30;44.00;;;;;;5009311;28;19913;-83
2022/07/11 10:59:33;;;;;;;;;;;33.20;43.20;;;;;;5006628;28;19963;-83
2022/07/11 11:02:03;;;;;;;;;;;33.40;44.70;;;;;;5015720;28;19963;-88
2022/07/11 11:05:04;;;;;;;;;;;33.20;44.90;;;;;;5016957;28;20433;-85
2022/07/11 11:07:31;;;;;;;;;;;32.70;46.60;;;;;;4936632;29;19914;-85
2022/07/11 11:09:57;;;;;;;;;;;32.80;46.80;;;;;;4937103;29;19917;-85
2022/07/11 11:12:41;;;;;;;;;;;33.20;50.30;;;;;;4941602;29;19926;-85
2022/07/11 11:15:25;;;;;;;;;;;32.40;47.60;;;;;;4939603;29;19910;-85
2022/07/11 11:17:51;;;;;;;;;;;32.10;48.10;;;;;;4942067;29;19910;-84
2022/07/11 11:20:32;;;;;;;;;;;32.20;49.40;;;;;;4942014;28;19941;-85
2022/07/11 11:23:10;;;;;;;;;;;32.20;49.50;;;;;;4931200;29;19910;-85
2022/07/11 11:25:35;;;;;;;;;;;32.30;48.60;;;;;;4942165;29;20025;-86
2022/07/11 11:28:04;;;;;;;;;;;31.90;49.20;;;;;;4935403;29;19910;-85
2022/07/11 11:30:31;;;;;;;;;;;32.20;49.10;;;;;;4940412;28;19950;-85
2022/07/11 11:32:56;;;;;;;;;;;32.10;49.80;;;;;;4936263;29;19922;-85
2022/07/11 11:35:22;;;;;;;;;;;31.80;49.60;;;;;;4934807;29;19944;-86
2022/07/11 11:37:48;;;;;;;;;;;31.60;48.50;;;;;;4938342;29;19910;-86
2022/07/11 11:40:13;;;;;;;;;;;31.60;48.60;;;;;;4946093;28;19953;-86
2022/07/11 11:42:39;;;;;;;;;;;31.40;49.60;;;;;;4997562;28;19918;-86
2022/07/11 11:45:07;;;;;;;;;;;31.30;48.80;;;;;;5019136;28;20725;-86
2022/07/11 11:47:35;;;;;;;;;;;31.10;49.60;;;;;;5022984;28;19909;-87
2022/07/11 11:50:00;;;;;;;;;;;31.40;51.20;;;;;;4999223;28;19920;-86
2022/07/11 11:52:29;;;;;;;;;;;31.40;50.00;;;;;;5027466;28;19925;-85
2022/07/11 11:54:55;;;;;;;;;;;31.40;49.40;;;;;;5022228;28;20335;-85
2022/07/11 11:57:22;;;;;;;;;;;31.50;49.50;;;;;;5002318;28;19909;-86
2022/07/11 11:59:49;;;;;;;;;;;31.10;48.30;;;;;;5016692;28;19920;-86
2022/07/11 12:02:20;;;;;;;;;;;31.10;48.20;;;;;;5000680;28;19967;-85
2022/07/11 12:04:45;;;;;;;;;;;31.30;48.40;;;;;;5016674;28;19940;-85
2022/07/11 12:07:11;;;;;;;;;;;31.10;49.30;;;;;;5021563;28;19948;-86
2022/07/11 12:09:46;;;;;;;;;;;31.30;49.40;;;;;;5018770;28;19920;-88
2022/07/11 12:14:55;;;;;;;;;;;31.10;48.80;;;;;;5021446;28;19932;-87
2022/07/11 12:17:29;;;;;;;;;;;31.10;51.20;;;;;;5021323;28;20421;-86
2022/07/11 12:19:54;;;;;;;;;;;31.30;48.00;;;;;;5007975;28;20652;-87
2022/07/11 12:22:20;;;;;;;;;;;31.00;48.10;;;;;;5005528;28;19916;-87
2022/07/11 12:24:48;;;;;;;;;;;31.00;48.70;;;;;;4997629;28;19915;-87
2022/07/11 12:27:17;;;;;;;;;;;30.90;47.20;;;;;;5017965;28;19909;-85
2022/07/11 12:29:45;;;;;;;;;;;30.90;48.80;;;;;;5021040;28;19933;-87
2022/07/11 12:32:11;;;;;;;;;;;31.10;47.30;;;;;;5037794;28;20656;-87
2022/07/11 12:34:37;;;;;;;;;;;31.20;48.50;;;;;;5016568;28;19921;-88
2022/07/11 12:37:03;;;;;;;;;;;31.20;48.60;;;;;;5017982;28;19913;-90
2022/07/11 12:39:29;;;;;;;;;;;31.00;47.90;;;;;;5020422;28;20467;-89
2022/07/11 12:41:56;;;;;;;;;;;31.20;49.30;;;;;;5030680;28;19917;-87
2022/07/11 12:47:09;;;;;;;;;;;30.90;46.90;;;;;;5018796;28;19924;-88
2022/07/11 12:49:35;;;;;;;;;;;30.90;47.40;;;;;;5020757;28;19925;-86
2022/07/11 12:52:01;;;;;;;;;;;30.90;47.60;;;;;;5031332;28;19936;-86
2022/07/11 12:54:31;;;;;;;;;;;31.00;49.20;;;;;;5020083;28;20296;-89
2022/07/11 12:57:03;;;;;;;;;;;31.00;47.20;;;;;;5021539;28;20338;-88
2022/07/11 12:59:29;;;;;;;;;;;30.90;47.20;;;;;;5001638;28;20577;-88
2022/07/11 13:02:00;;;;;;;;;;;31.00;48.40;;;;;;5021118;28;19914;-86
2022/07/11 13:04:48;;;;;;;;;;;31.10;49.20;;;;;;5015537;28;19914;-88
2022/07/11 13:10:13;;;;;;;;;;;30.90;48.00;;;;;;5017704;28;19924;-87
2022/07/11 13:12:40;;;;;;;;;;;30.80;48.30;;;;;;5001373;28;19924;-86
2022/07/11 13:15:10;;;;;;;;;;;30.80;47.60;;;;;;5000791;28;20778;-88
2022/07/11 13:17:54;;;;;;;;;;;30.80;46.90;;;;;;4997575;28;19919;-86
2022/07/11 13:20:21;;;;;;;;;;;30.90;47.50;;;;;;5015327;28;19923;-86
2022/07/11 13:22:48;;;;;;;;;;;31.00;45.90;;;;;;5017749;28;19909;-87
2022/07/11 13:25:14;;;;;;;;;;;30.90;45.70;;;;;;5013697;28;19972;-87
2022/07/11 13:27:40;;;;;;;;;;;30.90;45.60;;;;;;4997410;28;20008;-88
2022/07/11 13:30:11;;;;;;;;;;;30.80;47.60;;;;;;4999531;28;19909;-87
2022/07/11 13:32:40;;;;;;;;;;;30.70;47.10;;;;;;5015387;28;19999;-87
2022/07/11 13:35:06;;;;;;;;;;;30.70;46.50;;;;;;5010556;28;19922;-88
2022/07/11 13:37:32;;;;;;;;;;;30.80;47.30;;;;;;5013552;28;20303;-88
2022/07/11 13:39:57;;;;;;;;;;;30.80;46.90;;;;;;5012996;28;19917;-88
2022/07/11 13:42:23;;;;;;;;;;;30.80;45.80;;;;;;5019598;28;20300;-88
2022/07/11 13:44:49;;;;;;;;;;;30.90;46.10;;;;;;5002079;28;19909;-89
2022/07/11 13:47:14;;;;;;;;;;;30.90;45.80;;;;;;5018779;28;19905;-89
2022/07/11 13:49:41;;;;;;;;;;;30.80;46.50;;;;;;5019086;28;19924;-88
2022/07/11 13:52:06;;;;;;;;;;;30.60;44.00;;;;;;5020372;28;20015;-89
2022/07/11 13:54:32;;;;;;;;;;;30.70;44.50;;;;;;5001543;28;20012;-87
2022/07/11 13:56:58;;;;;;;;;;;30.90;44.30;;;;;;5016423;28;19952;-87
2022/07/11 13:59:23;;;;;;;;;;;30.80;41.90;;;;;;4998107;28;19917;-86
2022/07/11 14:01:49;;;;;;;;;;;30.70;44.50;;;;;;5003426;28;20027;-87
2022/07/11 14:04:14;;;;;;;;;;;30.80;45.90;;;;;;5021717;28;19920;-91
2022/07/11 14:06:41;;;;;;;;;;;30.60;43.90;;;;;;5007456;28;19909;-90
2022/07/11 14:09:06;;;;;;;;;;;30.50;44.60;;;;;;5003633;28;19955;-87
2022/07/11 14:11:32;;;;;;;;;;;30.70;47.40;;;;;;5016172;28;19925;-88
2022/07/11 14:13:58;;;;;;;;;;;30.70;44.70;;;;;;5001623;28;19963;-88
2022/07/11 14:16:24;;;;;;;;;;;30.60;46.60;;;;;;5016025;28;19991;-87
2022/07/11 14:18:50;;;;;;;;;;;30.50;46.80;;;;;;5018582;28;20043;-88
2022/07/11 14:21:16;;;;;;;;;;;30.50;46.60;;;;;;5012962;28;20004;-86
2022/07/11 14:23:42;;;;;;;;;;;30.40;46.10;;;;;;4997687;28;20025;-87
2022/07/11 14:26:09;;;;;;;;;;;30.40;45.00;;;;;;5016273;28;20447;-87
2022/07/11 14:28:34;;;;;;;;;;;30.40;45.80;;;;;;5011742;28;20360;-86
2022/07/11 14:31:00;;;;;;;;;;;30.40;46.60;;;;;;5004144;28;19944;-87
2022/07/11 14:33:26;;;;;;;;;;;30.50;47.10;;;;;;5015326;28;19971;-86
2022/07/11 14:35:53;;;;;;;;;;;30.60;49.40;;;;;;5017870;28;19948;-88